createdAt,value
2022-12-15T00:00:14.026Z,53.53
2022-12-15T00:03:26.123Z,56.37
2022-12-15T00:06:32.509Z,51.57
2022-12-15T00:09:39.644Z,55.00
2022-12-15T00:12:45.636Z,51.00
2022-12-15T00:15:51.812Z,54.87
2022-12-15T00:18:59.266Z,56.90
2022-12-15T00:22:05.499Z,52.20
2022-12-15T00:25:11.707Z,47.43
2022-12-15T00:28:17.897Z,50.80
2022-12-15T00:31:24.032Z,47.93
2022-12-15T00:34:31.759Z,48.27
2022-12-15T00:37:37.725Z,50.87
2022-12-15T00:40:26.563Z,50.53
2022-12-15T00:43:15.179Z,52.67
2022-12-15T00:46:22.429Z,52.60
2022-12-15T00:49:31.241Z,53.23
2022-12-15T00:52:39.031Z,50.77
2022-12-15T00:55:45.179Z,48.70
2022-12-15T00:58:51.207Z,46.33
2022-12-15T01:01:57.777Z,51.67
2022-12-15T01:05:04.254Z,48.37
2022-12-15T01:08:12.026Z,46.77
2022-12-15T01:11:19.744Z,49.10
2022-12-15T01:14:26.323Z,51.00
2022-12-15T01:17:33.038Z,45.07
2022-12-15T01:20:21.597Z,49.77
2022-12-15T01:23:11.698Z,49.00
2022-12-15T01:26:00.663Z,51.67
2022-12-15T01:28:49.240Z,45.70
2022-12-15T01:31:37.847Z,44.60
2022-12-15T01:34:26.583Z,46.87
2022-12-15T01:37:15.182Z,47.60
2022-12-15T01:40:23.230Z,51.50
2022-12-15T01:43:15.124Z,42.57
2022-12-15T01:46:06.499Z,45.20
2022-12-15T01:49:01.729Z,45.20
2022-12-15T01:51:53.506Z,52.27
2022-12-15T01:54:48.455Z,43.77
2022-12-15T01:57:39.818Z,45.77
2022-12-15T02:00:29.391Z,49.60
2022-12-15T02:03:18.333Z,49.63
2022-12-15T02:06:09.353Z,48.67
2022-12-15T02:09:00.699Z,46.83
2022-12-15T02:12:00.828Z,48.93
2022-12-15T02:15:03.515Z,48.80
2022-12-15T02:18:00.613Z,45.87
2022-12-15T02:20:57.548Z,49.67
2022-12-15T02:24:28.529Z,42.73
2022-12-15T02:27:44.705Z,47.60
2022-12-15T02:31:14.382Z,45.53
2022-12-15T02:34:11.812Z,44.53
2022-12-15T02:37:02.948Z,44.27
2022-12-15T02:39:51.732Z,45.47
2022-12-15T02:42:45.609Z,51.40
2022-12-15T02:45:43.878Z,45.37
2022-12-15T02:48:43.110Z,43.50
2022-12-15T02:51:45.712Z,47.73
2022-12-15T02:54:48.140Z,45.90
2022-12-15T02:57:49.559Z,44.13
2022-12-15T03:00:42.192Z,43.27
2022-12-15T03:03:36.527Z,47.37
2022-12-15T03:06:27.848Z,41.93
2022-12-15T03:09:16.799Z,47.73
2022-12-15T03:12:05.891Z,44.97
2022-12-15T03:14:54.800Z,48.27
2022-12-15T03:17:43.600Z,48.77
2022-12-15T03:20:33.767Z,46.83
2022-12-15T03:23:23.206Z,46.90
2022-12-15T03:26:11.871Z,46.20
2022-12-15T03:29:00.463Z,49.17
2022-12-15T03:31:49.933Z,48.40
2022-12-15T03:34:38.871Z,46.13
2022-12-15T03:37:29.042Z,45.93
2022-12-15T03:40:17.675Z,47.87
2022-12-15T03:43:06.390Z,48.57
2022-12-15T03:45:55.087Z,53.50
2022-12-15T03:48:43.779Z,47.70
2022-12-15T03:51:32.357Z,49.47
2022-12-15T03:54:22.497Z,51.03
2022-12-15T03:57:11.212Z,49.33
2022-12-15T04:00:00.035Z,49.63
2022-12-15T04:02:50.708Z,47.97
2022-12-15T04:05:39.753Z,45.93
2022-12-15T04:08:28.461Z,47.50
2022-12-15T04:11:18.851Z,46.57
2022-12-15T04:14:07.407Z,49.33
2022-12-15T04:16:56.103Z,50.67
2022-12-15T04:20:02.364Z,48.77
2022-12-15T04:22:52.235Z,48.40
2022-12-15T04:25:58.811Z,51.00
2022-12-15T04:29:06.408Z,52.40
2022-12-15T04:32:12.554Z,56.60
2022-12-15T04:35:18.580Z,52.77
2022-12-15T04:38:24.677Z,55.87
2022-12-15T04:41:31.221Z,53.63
2022-12-15T04:44:39.178Z,52.97
2022-12-15T04:47:45.451Z,54.10
2022-12-15T04:50:51.637Z,57.33
2022-12-15T04:53:57.445Z,54.03
2022-12-15T04:57:03.636Z,57.50
2022-12-15T05:00:11.073Z,55.87
2022-12-15T05:03:23.141Z,55.13
2022-12-15T05:06:28.979Z,57.13
2022-12-15T05:09:34.763Z,56.20
2022-12-15T05:12:40.697Z,60.90
2022-12-15T05:15:48.421Z,61.00
2022-12-15T05:18:55.187Z,59.30
2022-12-15T05:22:01.220Z,55.17
2022-12-15T05:25:07.506Z,58.40
2022-12-15T05:28:13.885Z,54.87
2022-12-15T05:31:21.352Z,57.57
2022-12-15T05:34:10.133Z,63.43
2022-12-15T05:37:00.510Z,53.67
2022-12-15T05:39:49.291Z,54.00
2022-12-15T05:42:37.830Z,63.57
2022-12-15T05:45:26.557Z,53.30
2022-12-15T05:48:17.982Z,60.67
2022-12-15T05:51:07.559Z,53.13
2022-12-15T05:53:56.488Z,61.97
2022-12-15T05:56:45.716Z,66.43
2022-12-15T05:59:34.274Z,59.13
2022-12-15T06:02:23.137Z,57.83
2022-12-15T06:05:13.180Z,56.70
2022-12-15T06:08:02.137Z,57.13
2022-12-15T06:10:54.607Z,61.47
2022-12-15T06:13:43.634Z,63.57
2022-12-15T06:16:32.582Z,62.67
2022-12-15T06:19:21.479Z,64.77
2022-12-15T06:22:11.682Z,63.37
2022-12-15T06:25:00.264Z,66.53
2022-12-15T06:27:48.953Z,69.17
2022-12-15T06:30:38.730Z,63.80
2022-12-15T06:33:27.500Z,67.77
2022-12-15T06:36:17.924Z,72.03
2022-12-15T06:39:10.132Z,71.93
2022-12-15T06:41:58.757Z,64.10
2022-12-15T06:44:47.460Z,69.17
2022-12-15T06:47:38.800Z,76.10
2022-12-15T06:50:27.651Z,68.07
2022-12-15T06:53:18.671Z,68.97
2022-12-15T06:56:19.567Z,69.17
2022-12-15T06:59:08.932Z,69.50
2022-12-15T07:01:57.706Z,65.03
2022-12-15T07:04:46.611Z,70.40
2022-12-15T07:07:35.244Z,67.93
2022-12-15T07:10:23.900Z,69.50
2022-12-15T07:13:14.477Z,72.83
2022-12-15T07:16:05.133Z,66.20
2022-12-15T07:18:53.869Z,74.43
2022-12-15T07:21:43.232Z,78.70
2022-12-15T07:24:31.853Z,70.53
2022-12-15T07:27:20.721Z,68.80
2022-12-15T07:30:12.583Z,74.90
2022-12-15T07:33:02.063Z,76.83
2022-12-15T07:35:54.847Z,64.60
2022-12-15T07:38:49.868Z,70.43
2022-12-15T07:41:40.678Z,75.07
2022-12-15T07:44:30.157Z,64.83
2022-12-15T07:47:20.145Z,119.97
2022-12-15T07:50:09.958Z,72.30
2022-12-15T07:52:58.570Z,70.03
2022-12-15T07:56:06.881Z,65.50
2022-12-15T07:58:55.978Z,64.83
2022-12-15T08:01:44.784Z,64.57
2022-12-15T08:04:35.063Z,64.83
2022-12-15T08:07:23.824Z,69.80
2022-12-15T08:10:12.646Z,67.30
2022-12-15T08:13:01.441Z,71.17
2022-12-15T08:15:54.252Z,66.23
2022-12-15T08:18:43.041Z,61.47
2022-12-15T08:21:33.335Z,67.60
2022-12-15T08:24:21.910Z,66.33
2022-12-15T08:27:10.501Z,64.33
2022-12-15T08:29:59.417Z,65.80
2022-12-15T08:32:51.880Z,60.53
2022-12-15T08:35:56.391Z,69.87
2022-12-15T08:38:48.037Z,62.87
2022-12-15T08:41:37.088Z,73.20
2022-12-15T08:44:25.936Z,70.67
2022-12-15T08:47:14.611Z,66.93
2022-12-15T08:50:03.453Z,70.60
2022-12-15T08:53:21.329Z,67.60
2022-12-15T08:56:05.943Z,68.40
2022-12-15T08:58:57.347Z,64.33
2022-12-15T09:01:46.223Z,69.43
2022-12-15T09:04:35.091Z,69.87
2022-12-15T09:07:23.811Z,69.03
2022-12-15T09:10:12.532Z,72.60
2022-12-15T09:13:02.780Z,56.43
2022-12-15T09:16:09.440Z,60.20
2022-12-15T09:19:00.538Z,75.30
2022-12-15T09:21:49.603Z,71.40
2022-12-15T09:24:39.594Z,62.60
2022-12-15T09:27:29.089Z,68.27
2022-12-15T09:30:19.441Z,76.53
2022-12-15T09:33:08.186Z,72.53
2022-12-15T09:35:56.797Z,79.83
2022-12-15T09:38:45.853Z,81.23
2022-12-15T09:41:36.492Z,79.17
2022-12-15T09:44:26.726Z,83.30
2022-12-15T09:47:26.054Z,87.40
2022-12-15T09:50:16.531Z,83.07
2022-12-15T09:53:23.082Z,84.03
2022-12-15T09:56:20.571Z,74.67
2022-12-15T09:59:25.358Z,72.43
2022-12-15T10:02:31.465Z,75.73
2022-12-15T10:08:44.477Z,69.47
2022-12-15T10:11:50.640Z,60.77
2022-12-15T10:14:44.567Z,63.60
2022-12-15T10:17:46.702Z,67.53
2022-12-15T10:20:39.270Z,61.63
2022-12-15T10:23:28.676Z,64.90
2022-12-15T10:26:21.533Z,59.17
2022-12-15T10:29:30.134Z,61.07
2022-12-15T10:32:21.262Z,61.17
2022-12-15T10:35:16.542Z,56.63
2022-12-15T10:38:08.940Z,62.03
2022-12-15T10:41:02.088Z,65.20
2022-12-15T10:43:52.906Z,62.13
2022-12-15T10:46:41.984Z,63.20
2022-12-15T10:49:30.996Z,66.47
2022-12-15T10:52:36.402Z,74.27
2022-12-15T10:55:38.104Z,72.13
2022-12-15T10:58:26.791Z,74.70
2022-12-15T11:01:21.229Z,77.70
2022-12-15T11:04:29.845Z,78.03
2022-12-15T11:07:18.550Z,88.10
2022-12-15T11:10:18.562Z,86.23
2022-12-15T11:13:15.617Z,85.97
2022-12-15T11:16:14.937Z,87.30
2022-12-15T11:19:12.497Z,87.23
2022-12-15T11:22:06.082Z,84.20
2022-12-15T11:24:59.538Z,92.13
2022-12-15T11:27:51.798Z,96.60
2022-12-15T11:30:47.677Z,88.97
2022-12-15T11:33:37.250Z,101.07
2022-12-15T11:36:42.472Z,107.93
2022-12-15T11:39:48.704Z,103.43
2022-12-15T11:42:49.493Z,105.10
2022-12-15T11:45:50.679Z,101.80
2022-12-15T11:48:48.949Z,104.57
2022-12-15T11:51:44.984Z,100.27
2022-12-15T11:54:41.971Z,98.10
2022-12-15T11:57:50.605Z,107.87
2022-12-15T12:00:46.691Z,100.03
2022-12-15T12:03:49.502Z,94.33
2022-12-15T12:06:49.675Z,101.53
2022-12-15T12:09:43.268Z,108.47
2022-12-15T12:12:39.295Z,106.90
2022-12-15T12:15:33.858Z,114.10
2022-12-15T12:18:28.720Z,94.10
2022-12-15T12:21:21.461Z,109.97
2022-12-15T12:24:17.645Z,97.63
2022-12-15T12:27:13.861Z,104.43
2022-12-15T12:30:05.790Z,107.97
2022-12-15T12:33:04.479Z,108.63
2022-12-15T12:35:59.059Z,110.97
2022-12-15T12:38:51.350Z,109.53
2022-12-15T12:41:47.007Z,105.63
2022-12-15T12:44:39.021Z,103.50
2022-12-15T12:47:32.738Z,113.73
2022-12-15T12:50:23.821Z,111.23
2022-12-15T12:53:28.924Z,109.57
2022-12-15T12:56:37.699Z,110.53
2022-12-15T12:59:41.011Z,118.13
2022-12-15T13:02:50.518Z,116.60
2022-12-15T13:05:41.221Z,111.37
2022-12-15T13:08:51.589Z,109.70
2022-12-15T13:11:56.902Z,116.33
2022-12-15T13:14:48.443Z,113.37
2022-12-15T13:17:45.011Z,106.93
2022-12-15T13:20:39.064Z,111.27
2022-12-15T13:23:43.280Z,100.47
2022-12-15T13:26:33.700Z,95.93
2022-12-15T13:29:24.304Z,87.93
2022-12-15T13:32:29.416Z,87.43
2022-12-15T13:35:24.606Z,81.83
2022-12-15T13:38:19.225Z,85.20
2022-12-15T13:41:24.096Z,84.93
2022-12-15T13:44:22.194Z,87.10
2022-12-15T13:47:14.090Z,90.63
2022-12-15T13:50:08.846Z,97.13
2022-12-15T13:53:18.523Z,90.40
2022-12-15T13:56:24.598Z,84.57
2022-12-15T13:59:24.390Z,87.27
2022-12-15T14:02:31.479Z,90.50
2022-12-15T14:05:22.696Z,88.10
2022-12-15T14:08:15.389Z,86.97
2022-12-15T14:11:22.277Z,82.43
2022-12-15T14:14:20.813Z,82.63
2022-12-15T14:17:13.686Z,78.27
2022-12-15T14:20:13.460Z,81.53
2022-12-15T14:23:02.515Z,78.63
2022-12-15T14:25:57.664Z,74.60
2022-12-15T14:28:50.593Z,77.70
2022-12-15T14:31:41.892Z,78.40
2022-12-15T14:34:34.254Z,78.87
2022-12-15T14:37:23.081Z,74.47
2022-12-15T14:40:16.385Z,80.63
2022-12-15T14:43:06.122Z,77.70
2022-12-15T14:45:58.031Z,85.80
2022-12-15T14:48:57.307Z,85.00
2022-12-15T14:51:49.611Z,83.80
2022-12-15T14:54:50.720Z,91.43
2022-12-15T14:57:46.395Z,83.13
2022-12-15T15:00:37.711Z,84.03
2022-12-15T15:03:08.187Z,65.97
2022-12-15T15:03:35.417Z,91.57
2022-12-15T15:06:32.012Z,81.77
2022-12-15T15:09:25.874Z,82.70
2022-12-15T15:12:18.371Z,84.20
2022-12-15T15:15:09.342Z,79.80
2022-12-15T15:18:00.410Z,75.13
2022-12-15T15:20:56.879Z,83.43
2022-12-15T15:24:01.060Z,78.67
2022-12-15T15:26:49.995Z,79.70
2022-12-15T15:29:41.127Z,77.00
2022-12-15T15:32:29.853Z,80.77
2022-12-15T15:35:19.119Z,74.40
2022-12-15T15:38:17.142Z,78.13
2022-12-15T15:41:17.670Z,67.70
2022-12-15T15:44:13.552Z,75.30
2022-12-15T15:47:02.695Z,78.63
2022-12-15T15:49:52.297Z,77.90
2022-12-15T15:52:41.228Z,77.63
2022-12-15T15:55:39.363Z,80.87
2022-12-15T15:58:30.454Z,78.23
2022-12-15T16:01:28.469Z,82.43
2022-12-15T16:04:17.401Z,89.77
2022-12-15T16:07:06.386Z,88.63
2022-12-15T16:09:55.841Z,82.27
2022-12-15T16:12:48.871Z,84.70
2022-12-15T16:15:39.056Z,84.23
2022-12-15T16:18:28.865Z,83.13
2022-12-15T16:21:18.900Z,79.47
2022-12-15T16:24:11.170Z,77.77
2022-12-15T16:27:00.378Z,78.17
2022-12-15T16:29:49.317Z,76.13
2022-12-15T16:32:39.476Z,73.77
2022-12-15T16:35:28.539Z,77.10
2022-12-15T16:38:23.184Z,74.70
2022-12-15T16:41:16.305Z,78.07
2022-12-15T16:44:05.984Z,75.20
2022-12-15T16:46:54.983Z,75.60
2022-12-15T16:49:45.474Z,73.80
2022-12-15T16:52:34.390Z,77.33
2022-12-15T16:55:25.978Z,77.60
2022-12-15T16:58:17.121Z,79.33
2022-12-15T17:01:06.325Z,72.17
2022-12-15T17:03:54.899Z,72.43
2022-12-15T17:06:45.172Z,72.77
2022-12-15T17:09:37.078Z,69.63
2022-12-15T17:12:25.947Z,83.40
2022-12-15T17:15:18.883Z,82.17
2022-12-15T17:18:07.901Z,74.60
2022-12-15T17:21:03.797Z,79.77
2022-12-15T17:23:57.052Z,77.00
2022-12-15T17:26:46.051Z,84.20
2022-12-15T17:29:35.173Z,68.53
2022-12-15T17:32:23.860Z,71.93
2022-12-15T17:35:12.991Z,76.80
2022-12-15T17:38:03.134Z,70.10
2022-12-15T17:40:53.947Z,73.67
2022-12-15T17:43:43.040Z,72.13
2022-12-15T17:46:32.287Z,75.60
2022-12-15T17:49:22.094Z,78.97
2022-12-15T17:52:25.467Z,73.20
2022-12-15T17:55:20.815Z,77.83
2022-12-15T17:58:18.932Z,80.87
2022-12-15T18:01:07.983Z,76.97
2022-12-15T18:03:56.935Z,78.27
2022-12-15T18:06:46.144Z,76.13
2022-12-15T18:09:35.062Z,72.13
2022-12-15T18:12:25.282Z,76.00
2022-12-15T18:15:20.697Z,80.07
2022-12-15T18:18:09.513Z,78.90
2022-12-15T18:21:01.746Z,78.13
2022-12-15T18:23:50.470Z,81.67
2022-12-15T18:26:39.294Z,76.07
2022-12-15T18:29:28.097Z,75.80
2022-12-15T18:32:18.311Z,78.83
2022-12-15T18:35:19.328Z,71.30
2022-12-15T18:38:17.438Z,72.50
2022-12-15T18:41:07.016Z,80.50
2022-12-15T18:43:58.715Z,73.87
2022-12-15T18:46:48.262Z,87.07
2022-12-15T18:49:38.637Z,81.27
2022-12-15T18:52:33.027Z,74.87
2022-12-15T18:55:24.138Z,80.80
2022-12-15T18:58:21.685Z,78.83
2022-12-15T19:01:11.742Z,70.60
2022-12-15T19:04:00.501Z,68.67
2022-12-15T19:06:50.681Z,78.57
2022-12-15T19:09:39.560Z,75.13
2022-12-15T19:12:28.276Z,70.50
2022-12-15T19:15:18.654Z,70.60
2022-12-15T19:18:24.798Z,63.87
2022-12-15T19:21:34.010Z,64.90
2022-12-15T19:24:46.388Z,70.77
2022-12-15T19:27:35.015Z,66.23
2022-12-15T19:30:23.792Z,64.57
2022-12-15T19:33:12.987Z,68.63
2022-12-15T19:36:01.814Z,79.10
2022-12-15T19:38:53.632Z,69.87
2022-12-15T19:41:43.701Z,74.10
2022-12-15T19:44:32.651Z,73.03
2022-12-15T19:47:21.371Z,74.43
2022-12-15T19:50:17.576Z,68.70
2022-12-15T19:53:12.377Z,68.00
2022-12-15T19:56:02.482Z,66.87
2022-12-15T19:58:52.666Z,68.67
2022-12-15T20:01:41.411Z,72.97
2022-12-15T20:04:32.174Z,64.47
2022-12-15T20:07:27.503Z,67.47
2022-12-15T20:10:24.439Z,66.47
2022-12-15T20:13:16.719Z,67.83
2022-12-15T20:16:07.184Z,67.63
2022-12-15T20:18:57.263Z,59.57
2022-12-15T20:21:46.130Z,63.50
2022-12-15T20:24:35.286Z,63.30
2022-12-15T20:27:24.012Z,56.67
2022-12-15T20:30:20.134Z,59.13
2022-12-15T20:33:11.863Z,58.20
2022-12-15T20:36:00.456Z,59.03
2022-12-15T20:38:49.802Z,56.03
2022-12-15T20:41:38.805Z,50.93
2022-12-15T20:44:27.581Z,51.40
2022-12-15T20:47:19.749Z,54.97
2022-12-15T20:50:23.493Z,56.07
2022-12-15T20:53:18.690Z,57.80
2022-12-15T20:56:08.295Z,53.23
2022-12-15T20:58:59.212Z,60.40
2022-12-15T21:01:48.150Z,58.13
2022-12-15T21:04:36.987Z,58.90
2022-12-15T21:07:27.388Z,52.37
2022-12-15T21:10:18.206Z,52.83
2022-12-15T21:13:15.056Z,62.73
2022-12-15T21:16:03.916Z,57.70
2022-12-15T21:22:04.267Z,53.20
2022-12-15T21:24:56.313Z,57.23
2022-12-15T21:27:44.969Z,55.57
2022-12-15T21:30:35.362Z,52.90
2022-12-15T21:33:24.119Z,54.20
2022-12-15T21:36:15.319Z,53.73
2022-12-15T21:39:06.340Z,62.43
2022-12-15T21:41:57.217Z,59.20
2022-12-15T21:44:46.605Z,56.80
2022-12-15T21:47:49.167Z,64.67
2022-12-15T21:50:39.419Z,60.90
2022-12-15T21:53:28.674Z,59.67
2022-12-15T21:56:19.444Z,55.87
2022-12-15T21:59:14.428Z,63.77
2022-12-15T22:02:03.670Z,61.87
2022-12-15T22:04:53.101Z,61.90
2022-12-15T22:07:43.726Z,59.80
2022-12-15T22:10:32.333Z,64.47
2022-12-15T22:13:23.578Z,62.53
2022-12-15T22:16:13.693Z,66.90
2022-12-15T22:19:03.021Z,63.10
2022-12-15T22:21:52.240Z,63.73
2022-12-15T22:24:41.599Z,69.37
2022-12-15T22:27:34.092Z,70.30
2022-12-15T22:30:26.851Z,71.97
2022-12-15T22:33:22.017Z,70.97
2022-12-15T22:36:10.919Z,67.73
2022-12-15T22:39:02.961Z,73.00
2022-12-15T22:41:56.069Z,78.87
2022-12-15T22:44:45.567Z,73.27
2022-12-15T22:47:37.573Z,71.83
2022-12-15T22:50:28.391Z,73.23
2022-12-15T22:53:18.306Z,74.23
2022-12-15T22:56:14.639Z,73.13
2022-12-15T22:59:08.339Z,83.53
2022-12-15T23:01:57.333Z,82.13
2022-12-15T23:04:46.565Z,73.47
2022-12-15T23:07:36.758Z,74.30
2022-12-15T23:10:43.101Z,82.03
2022-12-15T23:13:32.203Z,73.47
2022-12-15T23:16:21.670Z,79.70
2022-12-15T23:19:29.565Z,77.40
2022-12-15T23:22:18.234Z,75.83
2022-12-15T23:25:09.199Z,80.27
2022-12-15T23:27:58.624Z,78.03
2022-12-15T23:30:50.923Z,78.47
2022-12-15T23:33:41.229Z,81.43
2022-12-15T23:36:30.065Z,82.23
2022-12-15T23:39:18.670Z,78.50
2022-12-15T23:42:08.689Z,76.77
2022-12-15T23:44:57.334Z,75.23
2022-12-15T23:47:46.003Z,75.93
2022-12-15T23:50:34.956Z,69.93
2022-12-15T23:53:23.701Z,74.47
2022-12-15T23:56:15.410Z,76.13
2022-12-15T23:59:05.546Z,74.03
